SKK39 FKKD-DXXX
Flight info
| Callsign | SKK39 |
|---|---|
| Flight time | N/A |
| Altitude | 34000 |
| Route | ERPIS1B ERPIS DCT EBROT DCT ARDEX UA601 KIPSA DCT GATKA GATKA1L |
| Aircraft | B738/M-SDE2E3FGHIRWXY/LB1 |
Departure
| Time | N/A |
|---|---|
| Airport | Douala International Airport (FKKD) |
Arrival
| Time | 2026-04-17 09:49 |
|---|---|
| Airport | Lomé–Tokoin International Airport (DXXX) |
| Time | Latitude | Longitude | Altitude | Speed | Heading |
|---|---|---|---|---|---|
| 2026-04-17 09:39 | 6.13975 | 1.65933 | 7937 ft | 270 kts | 307° |
| 2026-04-17 09:39 | 6.15033 | 1.64396 | 7672 ft | 264 kts | 307° |
| 2026-04-17 09:40 | 6.16074 | 1.62881 | 7421 ft | 264 kts | 307° |
| 2026-04-17 09:40 | 6.17124 | 1.61355 | 7166 ft | 267 kts | 307° |
| 2026-04-17 09:40 | 6.18199 | 1.59791 | 6907 ft | 277 kts | 307° |
| 2026-04-17 09:40 | 6.19299 | 1.58189 | 6612 ft | 277 kts | 307° |
| 2026-04-17 09:41 | 6.20380 | 1.56611 | 6326 ft | 271 kts | 307° |
| 2026-04-17 09:41 | 6.21435 | 1.55069 | 6041 ft | 264 kts | 307° |
| 2026-04-17 09:41 | 6.22452 | 1.53585 | 5769 ft | 258 kts | 307° |
| 2026-04-17 09:41 | 6.23462 | 1.52111 | 5505 ft | 255 kts | 306° |
| 2026-04-17 09:42 | 6.24477 | 1.50631 | 5257 ft | 258 kts | 306° |
| 2026-04-17 09:42 | 6.25507 | 1.49128 | 5006 ft | 263 kts | 305° |
| 2026-04-17 09:42 | 6.26562 | 1.47589 | 4724 ft | 270 kts | 304° |
| 2026-04-17 09:42 | 6.27623 | 1.46042 | 4445 ft | 265 kts | 304° |
| 2026-04-17 09:43 | 6.28647 | 1.44545 | 4186 ft | 258 kts | 304° |
| 2026-04-17 09:43 | 6.29635 | 1.43103 | 4084 ft | 244 kts | 303° |
| 2026-04-17 09:43 | 6.30584 | 1.41716 | 3961 ft | 238 kts | 303° |
| 2026-04-17 09:43 | 6.31519 | 1.40352 | 3870 ft | 235 kts | 303° |
| 2026-04-17 09:44 | 6.32444 | 1.39001 | 3781 ft | 235 kts | 303° |
| 2026-04-17 09:44 | 6.33002 | 1.38058 | 3597 ft | 239 kts | 288° |
| 2026-04-17 09:44 | 6.32836 | 1.36031 | 3394 ft | 214 kts | 232° |
| 2026-04-17 09:44 | 6.31719 | 1.35203 | 3207 ft | 197 kts | 191° |
| 2026-04-17 09:45 | 6.30399 | 1.35080 | 2968 ft | 185 kts | 191° |
| 2026-04-17 09:45 | 6.29593 | 1.34855 | 2840 ft | 176 kts | 199° |
| 2026-04-17 09:45 | 6.28492 | 1.34461 | 2634 ft | 161 kts | 202° |
| 2026-04-17 09:45 | 6.27267 | 1.33780 | 2397 ft | 144 kts | 210° |
| 2026-04-17 09:46 | 6.26702 | 1.33426 | 2269 ft | 140 kts | 212° |
| 2026-04-17 09:46 | 6.25908 | 1.32868 | 2106 ft | 142 kts | 215° |
| 2026-04-17 09:46 | 6.25104 | 1.32248 | 1910 ft | 148 kts | 216° |
| 2026-04-17 09:46 | 6.24302 | 1.31608 | 1711 ft | 146 kts | 215° |
| 2026-04-17 09:47 | 6.23515 | 1.30979 | 1538 ft | 145 kts | 217° |
| 2026-04-17 09:47 | 6.22722 | 1.30342 | 1344 ft | 146 kts | 217° |
| 2026-04-17 09:47 | 6.21932 | 1.29708 | 1173 ft | 145 kts | 215° |
| 2026-04-17 09:47 | 6.21146 | 1.29079 | 982 ft | 144 kts | 217° |
| 2026-04-17 09:48 | 6.20407 | 1.28486 | 813 ft | 141 kts | 218° |
| 2026-04-17 09:48 | 6.19644 | 1.27852 | 530 ft | 145 kts | 219° |
| 2026-04-17 09:48 | 6.18866 | 1.27232 | 320 ft | 137 kts | 216° |
| 2026-04-17 09:48 | 6.18118 | 1.26643 | 221 ft | 138 kts | 218° |
| 2026-04-17 09:49 | 6.17368 | 1.26040 | 88 ft | 141 kts | 218° |
| 2026-04-17 09:49 | 6.16667 | 1.25486 | 72 ft | 109 kts | 218° |
| 2026-04-17 09:49 | 6.16190 | 1.25114 | 72 ft | 65 kts | 218° |
| 2026-04-17 09:49 | 6.15990 | 1.24956 | 72 ft | 30 kts | 218° |
| 2026-04-17 09:50 | 6.15928 | 1.24792 | 70 ft | 31 kts | 312° |
| 2026-04-17 09:50 | 6.16053 | 1.24753 | 74 ft | 29 kts | 32° |
| 2026-04-17 09:50 | 6.16268 | 1.24938 | 67 ft | 50 kts | 39° |
| 2026-04-17 09:50 | 6.16465 | 1.25094 | 65 ft | 16 kts | 37° |
| 2026-04-17 09:51 | 6.16472 | 1.25099 | 65 ft | 0 kts | 37° |
| 2026-04-17 09:51 | 6.16482 | 1.25107 | 71 ft | 4 kts | 37° |
| 2026-04-17 09:51 | 6.16523 | 1.25138 | 66 ft | 11 kts | 37° |
| 2026-04-17 09:51 | 6.16595 | 1.25197 | 70 ft | 13 kts | 46° |
| 2026-04-17 09:52 | 6.16649 | 1.25218 | 71 ft | 6 kts | 342° |
| 2026-04-17 09:52 | 6.16670 | 1.25191 | 74 ft | 5 kts | 298° |
| 2026-04-17 09:52 | 6.16688 | 1.25161 | 74 ft | 5 kts | 303° |
| 2026-04-17 09:52 | 6.16693 | 1.25155 | 69 ft | 0 kts | 305° |